Time;durP1;ratioP1;P1;durP2;ratioP2;P2;SDS_P1;SDS_P2;PMS_P1;PMS_P2;Temp;Humidity;BMP_temperature;BMP_pressure;BME280_temperature;BME280_humidity;BME280_pressure;Samples;Min_cycle;Max_cycle;Signal;HPM_P1;HPM_P2
2022/09/11 00:01:13;;;;;;;0.07;0.07;;;;;;;13.72;100.00;100287.81;5070143;28;20175;-76
2022/09/11 00:03:41;;;;;;;0.67;0.67;;;;;;;13.70;100.00;100290.91;5070244;28;20178;-76
2022/09/11 00:06:09;;;;;;;0.00;0.00;;;;;;;13.69;100.00;100294.81;5070104;28;20249;-75
2022/09/11 00:08:36;;;;;;;0.20;0.20;;;;;;;13.64;100.00;100294.22;5069660;28;20230;-75
2022/09/11 00:11:09;;;;;;;1.33;1.30;;;;;;;13.61;100.00;100303.94;5071703;28;20185;-75
2022/09/11 00:13:37;;;;;;;1.10;1.00;;;;;;;13.58;100.00;100301.81;5076273;28;20173;-75
2022/09/11 00:16:07;;;;;;;1.47;1.00;;;;;;;13.64;100.00;100302.44;5076748;28;20212;-75
2022/09/11 00:18:36;;;;;;;6.87;0.67;;;;;;;13.64;100.00;100303.25;5076816;28;20656;-75
2022/09/11 00:21:03;;;;;;;0.30;0.30;;;;;;;13.59;100.00;100297.13;5076658;28;20174;-76
2022/09/11 00:23:28;;;;;;;0.20;0.13;;;;;;;13.53;100.00;100296.53;5076582;28;20626;-75
2022/09/11 00:25:54;;;;;;;1.37;1.27;;;;;;;13.52;100.00;100303.19;5076609;28;20171;-75
2022/09/11 00:28:24;;;;;;;0.00;0.00;;;;;;;13.51;100.00;100309.81;5076471;28;20194;-75
2022/09/11 00:30:58;;;;;;;0.00;0.00;;;;;;;13.44;100.00;100300.47;5076786;28;20181;-75
2022/09/11 00:33:24;;;;;;;0.10;0.10;;;;;;;13.42;100.00;100294.53;5076486;28;20178;-75
2022/09/11 00:36:20;;;;;;;0.00;0.00;;;;;;;13.43;100.00;100298.88;5076481;28;20591;-75
2022/09/11 00:38:46;;;;;;;0.10;0.10;;;;;;;13.45;100.00;100302.09;5067906;28;20187;-76
2022/09/11 00:41:34;;;;;;;0.00;0.00;;;;;;;13.42;100.00;100309.06;5076655;28;20181;-75
2022/09/11 00:44:11;;;;;;;0.00;0.00;;;;;;;13.36;100.00;100291.19;5076244;28;20179;-75
2022/09/11 00:46:36;;;;;;;1.40;1.40;;;;;;;13.31;100.00;100310.59;5076506;28;20174;-75
2022/09/11 00:49:10;;;;;;;0.40;0.30;;;;;;;13.34;100.00;100299.75;5076317;28;20276;-75
2022/09/11 00:51:36;;;;;;;0.00;0.00;;;;;;;13.33;100.00;100305.59;5076445;28;20174;-76
2022/09/11 00:54:03;;;;;;;0.07;0.07;;;;;;;13.43;100.00;100312.59;5076234;28;20170;-75
2022/09/11 00:56:34;;;;;;;0.00;0.00;;;;;;;13.44;100.00;100315.00;5076448;28;20190;-77
2022/09/11 00:59:01;;;;;;;0.00;0.00;;;;;;;13.39;100.00;100302.28;5076483;28;20207;-74
2022/09/11 01:01:26;;;;;;;0.13;0.13;;;;;;;13.34;100.00;100304.44;5076259;28;20169;-73
2022/09/11 01:03:51;;;;;;;0.63;0.63;;;;;;;13.29;100.00;100307.38;5076007;28;20174;-75
2022/09/11 01:06:19;;;;;;;0.20;0.20;;;;;;;13.28;100.00;100303.81;5076552;28;20509;-76
2022/09/11 01:08:45;;;;;;;0.73;0.73;;;;;;;13.31;100.00;100311.41;5076315;28;20198;-76
2022/09/11 01:11:19;;;;;;;0.50;0.50;;;;;;;13.33;100.00;100308.31;5076322;28;20170;-76
2022/09/11 01:13:59;;;;;;;1.17;0.57;;;;;;;13.36;100.00;100307.66;5075720;28;20166;-75
2022/09/11 01:16:39;;;;;;;0.57;0.57;;;;;;;13.39;100.00;100306.97;5076121;28;20227;-75
2022/09/11 01:19:21;;;;;;;0.10;0.10;;;;;;;13.43;100.00;100302.44;5074854;28;20201;-76
2022/09/11 01:22:06;;;;;;;1.03;1.03;;;;;;;13.47;100.00;100314.38;5076063;28;20166;-77
2022/09/11 01:24:42;;;;;;;1.03;1.03;;;;;;;13.51;100.00;100314.50;5072054;28;20179;-75
2022/09/11 01:27:29;;;;;;;1.10;1.07;;;;;;;13.51;100.00;100309.00;5073098;28;20178;-75
2022/09/11 01:30:00;;;;;;;0.70;0.70;;;;;;;13.51;100.00;100315.28;5053217;28;20477;-76
2022/09/11 01:32:55;;;;;;;2.83;0.90;;;;;;;13.52;100.00;100305.91;5052864;28;20175;-76
2022/09/11 01:35:30;;;;;;;0.50;0.50;;;;;;;13.54;100.00;100305.59;5052691;28;20524;-75
2022/09/11 01:38:00;;;;;;;0.87;0.87;;;;;;;13.56;100.00;100315.09;5052809;28;20626;-77
2022/09/11 01:40:36;;;;;;;3.60;1.53;;;;;;;13.53;100.00;100310.28;5052521;28;20596;-73
2022/09/11 01:43:07;;;;;;;2.17;1.27;;;;;;;13.56;100.00;100317.84;5052740;28;20179;-73
2022/09/11 01:45:36;;;;;;;1.60;1.50;;;;;;;13.57;100.00;100315.88;5052700;28;20190;-73
2022/09/11 01:48:02;;;;;;;1.13;1.13;;;;;;;13.61;100.00;100319.59;5052657;28;20462;-72
2022/09/11 01:50:29;;;;;;;1.20;1.20;;;;;;;13.64;100.00;100325.22;5052454;28;20172;-74
2022/09/11 01:52:59;;;;;;;0.63;0.63;;;;;;;13.67;100.00;100321.00;5052502;28;20540;-73
2022/09/11 01:55:37;;;;;;;0.53;0.53;;;;;;;13.67;100.00;100323.72;5052174;28;20187;-73
2022/09/11 01:58:08;;;;;;;0.20;0.20;;;;;;;13.72;100.00;100341.94;5052434;28;20253;-73
2022/09/11 02:00:36;;;;;;;0.60;0.60;;;;;;;13.73;100.00;100338.06;5051092;28;20233;-73
2022/09/11 02:03:18;;;;;;;0.67;0.67;;;;;;;13.72;100.00;100345.50;5052230;28;20206;-73
2022/09/11 02:05:49;;;;;;;0.03;0.03;;;;;;;13.73;100.00;100340.78;5052156;28;20674;-73
2022/09/11 02:08:25;;;;;;;1.30;1.30;;;;;;;13.70;100.00;100345.81;5052203;28;20211;-73
2022/09/11 02:10:55;;;;;;;0.53;0.53;;;;;;;13.70;100.00;100345.81;5052159;28;20174;-73
2022/09/11 02:13:28;;;;;;;0.37;0.37;;;;;;;13.71;100.00;100346.63;5052055;28;20171;-74
2022/09/11 02:16:13;;;;;;;1.87;1.77;;;;;;;13.73;100.00;100349.03;5052294;28;20171;-73
2022/09/11 02:18:46;;;;;;;1.37;1.37;;;;;;;13.75;100.00;100350.34;5052167;28;20302;-73
2022/09/11 02:21:11;;;;;;;0.50;0.50;;;;;;;13.77;100.00;100347.25;5051944;28;20178;-73
2022/09/11 02:23:37;;;;;;;1.20;0.83;;;;;;;13.80;100.00;100355.63;5051633;28;20171;-73
2022/09/11 02:26:05;;;;;;;11.17;2.20;;;;;;;13.84;100.00;100353.78;5051880;28;20638;-73
2022/09/11 02:28:30;;;;;;;2.57;1.50;;;;;;;13.88;100.00;100354.72;5051847;28;20228;-73
2022/09/11 02:30:56;;;;;;;0.83;0.83;;;;;;;13.92;100.00;100355.69;5052143;28;20179;-74
2022/09/11 02:33:39;;;;;;;0.40;0.40;;;;;;;13.96;100.00;100356.59;5051619;28;20202;-73
2022/09/11 02:36:28;;;;;;;0.20;0.20;;;;;;;14.00;100.00;100359.47;5051826;28;20233;-74
2022/09/11 02:39:18;;;;;;;1.73;1.73;;;;;;;14.08;100.00;100363.31;5051524;28;20651;-73
2022/09/11 02:42:06;;;;;;;0.00;0.00;;;;;;;14.06;100.00;100358.16;5051464;28;20237;-74
2022/09/11 02:44:46;;;;;;;0.07;0.07;;;;;;;14.09;100.00;100368.47;5051215;28;20229;-73
2022/09/11 02:47:39;;;;;;;0.00;0.00;;;;;;;14.16;100.00;100370.66;5051646;28;20182;-74
2022/09/11 02:50:42;;;;;;;0.10;0.10;;;;;;;14.23;100.00;100362.69;5051018;28;20171;-73
2022/09/11 02:53:15;;;;;;;0.97;0.97;;;;;;;14.21;100.00;100367.72;5051251;28;20650;-74
2022/09/11 02:55:54;;;;;;;0.43;0.27;;;;;;;14.22;100.00;100361.88;5051181;28;20187;-73
2022/09/11 02:58:28;;;;;;;5.20;4.60;;;;;;;14.22;100.00;100369.31;5051055;28;20179;-73
2022/09/11 03:00:59;;;;;;;3.23;3.13;;;;;;;14.19;100.00;100370.81;5051035;28;20175;-73
2022/09/11 03:03:24;;;;;;;1.37;0.53;;;;;;;14.20;100.00;100375.16;5050979;28;20222;-74
2022/09/11 03:05:50;;;;;;;1.03;1.03;;;;;;;14.18;100.00;100379.38;5050162;28;20198;-74
2022/09/11 03:08:18;;;;;;;0.23;0.23;;;;;;;14.18;100.00;100382.94;5051173;28;20663;-74
2022/09/11 03:10:45;;;;;;;0.10;0.10;;;;;;;14.16;100.00;100378.91;5050960;28;20233;-73
2022/09/11 03:13:13;;;;;;;0.00;0.00;;;;;;;14.15;100.00;100389.09;5051067;28;20199;-73
2022/09/11 03:15:39;;;;;;;1.00;1.00;;;;;;;14.18;100.00;100388.44;5051087;28;20171;-73
2022/09/11 03:18:04;;;;;;;3.10;3.00;;;;;;;14.23;100.00;100381.91;5051033;28;20541;-73
2022/09/11 03:20:30;;;;;;;0.60;0.60;;;;;;;14.23;100.00;100379.97;5050625;28;20228;-73
2022/09/11 03:22:55;;;;;;;1.87;1.73;;;;;;;14.22;100.00;100385.81;5050915;28;20175;-74
2022/09/11 03:25:23;;;;;;;1.17;1.17;;;;;;;14.21;100.00;100393.25;5050394;28;20207;-74
2022/09/11 03:27:48;;;;;;;1.43;1.43;;;;;;;14.19;100.00;100395.53;5050614;28;20313;-73
2022/09/11 03:30:14;;;;;;;22.50;9.50;;;;;;;14.15;100.00;100391.81;5050604;28;20274;-73
2022/09/11 03:32:39;;;;;;;0.87;0.87;;;;;;;14.14;100.00;100398.47;5051064;28;20627;-74
2022/09/11 03:35:04;;;;;;;0.00;0.00;;;;;;;14.12;100.00;100392.50;5050194;28;20179;-74
2022/09/11 03:37:30;;;;;;;1.33;1.20;;;;;;;14.10;100.00;100402.22;5050616;28;20626;-73
2022/09/11 03:39:55;;;;;;;6.97;4.97;;;;;;;14.06;100.00;100393.88;5050401;28;20179;-73
2022/09/11 03:42:20;;;;;;;2.63;2.43;;;;;;;14.00;100.00;100396.00;5050263;28;20185;-74
2022/09/11 03:44:46;;;;;;;1.03;0.53;;;;;;;14.00;100.00;100393.25;5050168;28;20181;-74
2022/09/11 03:47:11;;;;;;;9.27;4.10;;;;;;;14.01;100.00;100402.28;5049834;28;20646;-73
2022/09/11 03:49:37;;;;;;;1.93;1.87;;;;;;;13.99;100.00;100402.63;5050282;28;20179;-73
2022/09/11 03:52:03;;;;;;;0.30;0.30;;;;;;;13.95;100.00;100398.16;5050027;28;20187;-74
2022/09/11 03:54:28;;;;;;;0.00;0.00;;;;;;;13.99;100.00;100401.81;5048799;28;20184;-74
2022/09/11 03:56:54;;;;;;;0.20;0.20;;;;;;;14.01;100.00;100407.78;5050110;28;20191;-74
2022/09/11 03:59:20;;;;;;;4.27;3.97;;;;;;;14.01;100.00;100394.06;5049776;28;20185;-74
2022/09/11 04:01:45;;;;;;;0.00;0.00;;;;;;;13.97;100.00;100404.09;5049964;28;20202;-73
2022/09/11 04:04:11;;;;;;;0.80;0.80;;;;;;;14.00;100.00;100406.97;5050098;28;20171;-74
2022/09/11 04:06:37;;;;;;;1.10;1.10;;;;;;;14.06;100.00;100396.63;5050199;28;20171;-74
2022/09/11 04:09:02;;;;;;;3.50;2.30;;;;;;;14.03;100.00;100397.25;5050184;28;20214;-74
2022/09/11 04:11:28;;;;;;;8.60;1.37;;;;;;;14.08;100.00;100394.31;5049853;28;20190;-74
2022/09/11 04:13:54;;;;;;;0.00;0.00;;;;;;;14.02;100.00;100390.16;5050162;28;20172;-73
2022/09/11 04:16:19;;;;;;;0.00;0.00;;;;;;;13.97;100.00;100391.19;5048712;28;20185;-74
2022/09/11 04:18:46;;;;;;;2.90;2.80;;;;;;;14.07;100.00;100394.66;5050257;28;20547;-74
2022/09/11 04:21:14;;;;;;;0.60;0.60;;;;;;;13.97;100.00;100393.94;5049958;28;20177;-75
2022/09/11 04:23:40;;;;;;;0.20;0.20;;;;;;;14.06;100.00;100399.34;5049825;28;20224;-74
2022/09/11 04:26:14;;;;;;;0.97;0.97;;;;;;;14.04;100.00;100390.66;5048476;28;20179;-73
2022/09/11 04:28:40;;;;;;;0.43;0.43;;;;;;;14.06;100.00;100395.81;5055192;28;20221;-74
2022/09/11 04:31:05;;;;;;;2.70;2.47;;;;;;;14.03;100.00;100393.72;5069952;28;20189;-77
2022/09/11 04:33:31;;;;;;;1.40;1.33;;;;;;;14.08;100.00;100393.53;5070723;28;20175;-76
2022/09/11 04:35:56;;;;;;;2.60;2.40;;;;;;;14.09;100.00;100395.94;5072348;28;20174;-77
2022/09/11 04:38:22;;;;;;;0.63;0.63;;;;;;;14.07;100.00;100400.97;5070132;28;20182;-76
2022/09/11 04:40:48;;;;;;;2.00;1.97;;;;;;;14.10;100.00;100396.75;5070346;28;20535;-77
2022/09/11 04:43:15;;;;;;;0.00;0.00;;;;;;;14.06;100.00;100401.31;5070289;28;20178;-77
2022/09/11 04:45:40;;;;;;;0.00;0.00;;;;;;;14.07;100.00;100402.91;5070202;28;20717;-77
2022/09/11 04:48:06;;;;;;;1.13;1.13;;;;;;;14.02;100.00;100414.88;5070085;28;20234;-78
2022/09/11 04:50:31;;;;;;;6.30;0.73;;;;;;;14.07;100.00;100406.47;5070060;28;20174;-77
2022/09/11 04:52:57;;;;;;;0.00;0.00;;;;;;;14.02;100.00;100409.38;5068920;28;20181;-77
2022/09/11 04:55:24;;;;;;;0.00;0.00;;;;;;;14.02;100.00;100412.13;5069992;28;20269;-77
2022/09/11 04:57:49;;;;;;;0.43;0.43;;;;;;;13.93;100.00;100423.22;5070614;28;20531;-77
2022/09/11 05:00:15;;;;;;;0.20;0.20;;;;;;;13.92;100.00;100415.31;5073888;28;20178;-77
2022/09/11 05:02:40;;;;;;;0.00;0.00;;;;;;;13.88;100.00;100411.59;5073808;28;20654;-78
2022/09/11 05:05:08;;;;;;;0.00;0.00;;;;;;;13.84;100.00;100416.97;5073554;28;20178;-76
2022/09/11 05:07:34;;;;;;;0.00;0.00;;;;;;;13.79;100.00;100425.41;5073421;28;20213;-78
2022/09/11 05:09:59;;;;;;;0.00;0.00;;;;;;;13.70;100.00;100422.69;5073545;28;20182;-76
2022/09/11 05:12:25;;;;;;;2.17;1.20;;;;;;;13.79;100.00;100428.16;5073943;28;20174;-77
2022/09/11 05:14:50;;;;;;;0.00;0.00;;;;;;;13.68;100.00;100418.69;5073533;28;20378;-76
2022/09/11 05:17:15;;;;;;;0.20;0.20;;;;;;;13.70;100.00;100430.13;5073681;28;20243;-77
2022/09/11 05:19:40;;;;;;;1.43;1.43;;;;;;;13.76;100.00;100425.28;5070456;28;20178;-76
2022/09/11 05:22:06;;;;;;;0.33;0.33;;;;;;;13.80;100.00;100424.25;5072681;28;20232;-77
2022/09/11 05:24:31;;;;;;;2.17;2.10;;;;;;;13.83;100.00;100436.53;5072405;28;20228;-76
2022/09/11 05:27:00;;;;;;;0.37;0.37;;;;;;;13.83;100.00;100431.84;5073604;28;20174;-77
2022/09/11 05:29:27;;;;;;;0.00;0.00;;;;;;;13.84;100.00;100444.44;5073377;28;20190;-76
2022/09/11 05:31:54;;;;;;;2.97;2.77;;;;;;;13.83;100.00;100448.31;5073210;28;20225;-76
2022/09/11 05:34:21;;;;;;;0.93;0.93;;;;;;;13.84;100.00;100460.91;5072997;28;20185;-76
2022/09/11 05:36:46;;;;;;;0.30;0.30;;;;;;;13.85;100.00;100462.50;5073457;28;20170;-76
2022/09/11 05:39:11;;;;;;;3.10;1.10;;;;;;;13.86;100.00;100472.34;5072752;28;20545;-76
2022/09/11 05:41:37;;;;;;;1.77;1.70;;;;;;;13.89;100.00;100479.94;5072939;28;20183;-76
2022/09/11 05:44:02;;;;;;;1.93;1.83;;;;;;;13.92;100.00;100484.78;5072876;28;20183;-76
2022/09/11 05:46:27;;;;;;;4.27;2.53;;;;;;;13.87;100.00;100478.66;5073130;28;20258;-76
2022/09/11 05:48:53;;;;;;;0.50;0.50;;;;;;;13.87;100.00;100489.63;5073304;28;20272;-76
2022/09/11 05:51:20;;;;;;;0.43;0.40;;;;;;;13.91;100.00;100488.66;5072950;28;20177;-76
2022/09/11 05:53:45;;;;;;;3.40;1.70;;;;;;;13.93;100.00;100493.81;5072767;28;20179;-75
2022/09/11 05:56:14;;;;;;;0.00;0.00;;;;;;;13.94;100.00;100492.69;5072785;28;20550;-77
2022/09/11 05:58:42;;;;;;;0.40;0.40;;;;;;;13.96;100.00;100490.41;5072514;28;20289;-75
2022/09/11 06:01:14;;;;;;;0.63;0.63;;;;;;;13.98;100.00;100499.91;5072833;28;20585;-77
2022/09/11 06:03:39;;;;;;;0.00;0.00;;;;;;;14.05;100.00;100495.84;5072826;28;20209;-78
2022/09/11 06:06:07;;;;;;;0.27;0.27;;;;;;;14.04;100.00;100506.03;5071477;28;20194;-77
2022/09/11 06:08:33;;;;;;;0.10;0.10;;;;;;;14.00;100.00;100500.38;5072207;28;20772;-76
2022/09/11 06:11:01;;;;;;;0.00;0.00;;;;;;;13.98;100.00;100510.09;5072489;28;20178;-77
2022/09/11 06:13:30;;;;;;;1.03;0.50;;;;;;;13.98;100.00;100516.41;5072313;28;20162;-77
2022/09/11 06:15:55;;;;;;;0.13;0.13;;;;;;;13.98;100.00;100521.88;5072545;28;20554;-77
2022/09/11 06:18:20;;;;;;;0.77;0.43;;;;;;;13.98;100.00;100532.06;5072588;28;20220;-73
2022/09/11 06:21:07;;;;;;;0.10;0.10;;;;;;;13.97;100.00;100534.03;5072221;28;20592;-77
2022/09/11 06:23:34;;;;;;;4.20;3.93;;;;;;;13.87;100.00;100537.13;5072259;28;20224;-78
2022/09/11 06:26:08;;;;;;;12.73;1.23;;;;;;;13.83;100.00;100547.19;5072233;28;20166;-76
2022/09/11 06:28:36;;;;;;;0.73;0.73;;;;;;;13.88;100.00;100546.19;5072258;28;20216;-76
2022/09/11 06:31:04;;;;;;;0.60;0.60;;;;;;;13.88;100.00;100548.91;5072193;28;20307;-75
2022/09/11 06:33:35;;;;;;;0.27;0.27;;;;;;;13.86;100.00;100559.44;5072411;28;20174;-76
2022/09/11 06:36:02;;;;;;;0.07;0.07;;;;;;;13.79;100.00;100561.91;5072137;28;20551;-77
2022/09/11 06:38:28;;;;;;;0.47;0.47;;;;;;;13.79;100.00;100557.22;5071804;28;20642;-78
2022/09/11 06:40:55;;;;;;;6.83;4.50;;;;;;;13.76;100.00;100568.06;5071920;28;20167;-76
2022/09/11 06:43:20;;;;;;;0.07;0.07;;;;;;;13.74;100.00;100575.81;5071994;28;20253;-75
2022/09/11 06:45:49;;;;;;;0.00;0.00;;;;;;;13.68;100.00;100572.44;5071761;28;20332;-78
2022/09/11 06:48:15;;;;;;;0.00;0.00;;;;;;;13.79;100.00;100578.38;5071737;28;20701;-76
2022/09/11 06:50:41;;;;;;;0.57;0.57;;;;;;;13.73;100.00;100575.00;5071288;28;20186;-74
2022/09/11 06:53:07;;;;;;;0.00;0.00;;;;;;;13.66;100.00;100572.78;5071914;28;20170;-76
2022/09/11 06:55:33;;;;;;;0.00;0.00;;;;;;;13.53;100.00;100573.78;5071344;28;20186;-75
2022/09/11 06:57:59;;;;;;;0.00;0.00;;;;;;;13.54;100.00;100567.16;5071916;28;20182;-74
2022/09/11 07:00:24;;;;;;;0.87;0.87;;;;;;;13.63;100.00;100565.19;5071520;28;20245;-75
2022/09/11 07:02:51;;;;;;;0.00;0.00;;;;;;;13.69;100.00;100574.84;5070252;28;20175;-77
2022/09/11 07:05:17;;;;;;;1.80;1.70;;;;;;;13.65;100.00;100573.09;5070030;28;20196;-78
2022/09/11 07:07:42;;;;;;;9.23;2.03;;;;;;;13.77;100.00;100575.16;5071353;28;20553;-76
2022/09/11 07:10:09;;;;;;;0.00;0.00;;;;;;;13.81;100.00;100582.41;5071262;28;20213;-75
2022/09/11 07:12:34;;;;;;;0.00;0.00;;;;;;;13.85;100.00;100580.59;5071458;28;20211;-77
2022/09/11 07:15:00;;;;;;;0.10;0.10;;;;;;;13.83;100.00;100582.06;5071378;28;20174;-74
2022/09/11 07:17:25;;;;;;;0.00;0.00;;;;;;;13.94;100.00;100580.56;5071354;28;20174;-77
2022/09/11 07:19:51;;;;;;;0.60;0.60;;;;;;;13.93;100.00;100588.00;5071181;28;20202;-77
2022/09/11 07:22:16;;;;;;;0.00;0.00;;;;;;;13.99;100.00;100591.38;5069226;28;20174;-77
2022/09/11 07:24:41;;;;;;;0.83;0.83;;;;;;;14.04;100.00;100596.69;5070910;28;20205;-76
2022/09/11 07:27:07;;;;;;;0.00;0.00;;;;;;;13.99;100.00;100599.59;5071013;28;20180;-76
2022/09/11 07:29:33;;;;;;;0.00;0.00;;;;;;;14.03;100.00;100599.75;5071161;28;20177;-78
2022/09/11 07:31:58;;;;;;;0.00;0.00;;;;;;;13.93;100.00;100600.94;5071557;28;20212;-77
2022/09/11 07:34:24;;;;;;;0.23;0.23;;;;;;;13.69;100.00;100599.56;5070936;28;20579;-76
2022/09/11 07:36:50;;;;;;;1.30;1.10;;;;;;;13.62;100.00;100606.72;5071122;28;20186;-76
2022/09/11 07:39:16;;;;;;;0.30;0.30;;;;;;;13.58;100.00;100609.28;5070684;28;20178;-75
2022/09/11 07:41:41;;;;;;;0.00;0.00;;;;;;;13.78;100.00;100604.25;5070943;28;20175;-77
2022/09/11 07:44:07;;;;;;;0.00;0.00;;;;;;;13.90;100.00;100612.59;5070553;28;20189;-77
2022/09/11 07:46:32;;;;;;;0.00;0.00;;;;;;;13.97;100.00;100607.38;5070871;28;20235;-77
2022/09/11 07:48:58;;;;;;;1.80;1.80;;;;;;;14.13;100.00;100615.88;5070836;28;20202;-76
2022/09/11 07:51:25;;;;;;;0.00;0.00;;;;;;;14.08;100.00;100611.38;5070725;28;20261;-76
2022/09/11 07:53:51;;;;;;;0.40;0.40;;;;;;;14.12;100.00;100623.31;5070593;28;20227;-77
2022/09/11 07:56:19;;;;;;;0.27;0.27;;;;;;;13.86;100.00;100615.16;5070603;28;20609;-80
2022/09/11 07:58:45;;;;;;;0.00;0.00;;;;;;;13.87;100.00;100614.03;5070455;28;20546;-78
2022/09/11 08:01:16;;;;;;;0.00;0.00;;;;;;;14.17;100.00;100628.59;5070638;28;20171;-78
2022/09/11 08:03:41;;;;;;;0.07;0.07;;;;;;;14.36;100.00;100619.16;5070314;28;20202;-78
2022/09/11 08:06:10;;;;;;;0.00;0.00;;;;;;;14.17;100.00;100623.09;5070331;28;20581;-76
2022/09/11 08:08:36;;;;;;;0.00;0.00;;;;;;;14.36;100.00;100624.66;5049210;28;20207;-77
2022/09/11 08:11:05;;;;;;;0.00;0.00;;;;;;;14.35;100.00;100634.03;5050521;28;20537;-74
2022/09/11 08:13:31;;;;;;;0.00;0.00;;;;;;;14.52;100.00;100636.72;5051429;28;20178;-73
2022/09/11 08:15:56;;;;;;;0.00;0.00;;;;;;;14.60;100.00;100644.09;5051589;28;20179;-73
2022/09/11 08:18:22;;;;;;;0.00;0.00;;;;;;;14.68;100.00;100648.72;5050867;28;20167;-76
2022/09/11 08:20:48;;;;;;;0.00;0.00;;;;;;;14.76;100.00;100647.88;5050731;28;20254;-77
2022/09/11 08:23:14;;;;;;;0.50;0.50;;;;;;;14.78;100.00;100651.09;5050563;28;20175;-78
2022/09/11 08:25:40;;;;;;;0.00;0.00;;;;;;;14.77;100.00;100663.25;5050245;28;20577;-76
2022/09/11 08:28:05;;;;;;;0.00;0.00;;;;;;;14.71;100.00;100664.56;5050311;28;20195;-76
2022/09/11 08:30:31;;;;;;;0.00;0.00;;;;;;;14.80;100.00;100672.75;5050379;28;20179;-75
2022/09/11 08:32:58;;;;;;;0.37;0.37;;;;;;;14.88;100.00;100669.94;5052891;28;20217;-78
2022/09/11 08:35:24;;;;;;;1.67;1.67;;;;;;;14.95;100.00;100679.63;5054375;28;20647;-74
2022/09/11 08:37:50;;;;;;;1.90;0.50;;;;;;;14.98;100.00;100678.94;5054413;28;20178;-75
2022/09/11 08:40:17;;;;;;;0.20;0.20;;;;;;;14.97;100.00;100680.09;5052929;28;20274;-74
2022/09/11 08:42:45;;;;;;;0.33;0.33;;;;;;;14.94;100.00;100686.25;5054344;28;20183;-75
2022/09/11 08:45:17;;;;;;;0.00;0.00;;;;;;;15.03;100.00;100687.78;5054261;28;20172;-74
2022/09/11 08:47:49;;;;;;;6.90;3.60;;;;;;;15.08;100.00;100693.13;5054104;28;20285;-74
2022/09/11 08:50:18;;;;;;;0.13;0.13;;;;;;;14.98;100.00;100689.94;5054004;28;20653;-74
2022/09/11 08:52:43;;;;;;;1.23;1.23;;;;;;;15.07;100.00;100693.47;5054187;28;20839;-74
2022/09/11 08:55:16;;;;;;;1.80;1.70;;;;;;;14.94;100.00;100695.31;5053836;28;20267;-74
2022/09/11 08:57:49;;;;;;;2.20;2.00;;;;;;;15.00;100.00;100702.22;5054144;28;20167;-74
2022/09/11 09:00:20;;;;;;;0.67;0.67;;;;;;;15.02;100.00;100699.94;5053966;28;20515;-74
2022/09/11 09:03:23;;;;;;;6.40;2.57;;;;;;;15.02;100.00;100690.88;5053856;28;20167;-74
2022/09/11 09:05:51;;;;;;;1.30;1.30;;;;;;;15.03;100.00;100695.25;5054060;28;20167;-74
2022/09/11 09:08:23;;;;;;;1.97;1.97;;;;;;;15.03;100.00;100698.78;5053780;28;20202;-74
2022/09/11 09:10:51;;;;;;;0.00;0.00;;;;;;;15.04;100.00;100702.34;5053728;28;20163;-74
2022/09/11 09:13:31;;;;;;;0.97;0.97;;;;;;;15.11;100.00;100694.38;5053604;28;20254;-74
2022/09/11 09:16:34;;;;;;;0.73;0.73;;;;;;;15.09;100.00;100693.91;5053785;28;20914;-74
2022/09/11 09:19:09;;;;;;;3.00;1.83;;;;;;;15.09;100.00;100702.19;5053542;28;20167;-74
2022/09/11 09:22:09;;;;;;;1.70;1.60;;;;;;;15.13;100.00;100706.66;5052091;28;20262;-74
2022/09/11 09:24:49;;;;;;;2.13;2.03;;;;;;;15.23;100.00;100707.41;5033447;28;20190;-75
2022/09/11 09:27:20;;;;;;;0.87;0.87;;;;;;;15.27;100.00;100711.09;5053385;28;20732;-74
2022/09/11 09:29:51;;;;;;;0.30;0.30;;;;;;;15.31;100.00;100717.53;5053384;28;20630;-74
2022/09/11 09:32:26;;;;;;;1.80;1.30;;;;;;;15.30;100.00;100719.47;5053308;28;20167;-74
2022/09/11 09:34:56;;;;;;;2.80;2.63;;;;;;;15.27;100.00;100722.91;5053125;28;20765;-75
2022/09/11 09:37:22;;;;;;;0.00;0.00;;;;;;;15.31;100.00;100726.59;5053296;28;20217;-74
2022/09/11 09:39:48;;;;;;;0.63;0.63;;;;;;;15.36;100.00;100726.41;5053114;28;20201;-74
2022/09/11 09:42:35;;;;;;;0.00;0.00;;;;;;;15.28;100.00;100730.03;5053074;28;20191;-74
2022/09/11 09:45:37;;;;;;;0.37;0.37;;;;;;;15.08;100.00;100733.59;5052099;28;20229;-74
2022/09/11 09:48:05;;;;;;;3.07;2.93;;;;;;;14.98;100.00;100733.97;5053097;28;20304;-73
2022/09/11 09:50:33;;;;;;;0.00;0.00;;;;;;;14.91;100.00;100731.75;5052818;28;20186;-74
2022/09/11 09:53:44;;;;;;;0.00;0.00;;;;;;;14.86;100.00;100737.44;5053208;28;20183;-74
2022/09/11 09:56:18;;;;;;;3.17;3.00;;;;;;;14.87;100.00;100736.31;5049878;28;20228;-76
2022/09/11 09:59:07;;;;;;;0.00;0.00;;;;;;;15.00;100.00;100739.94;5052853;28;20195;-76
2022/09/11 10:01:44;;;;;;;0.00;0.00;;;;;;;14.98;100.00;100733.97;5052747;28;20175;-76
2022/09/11 10:04:12;;;;;;;0.00;0.00;;;;;;;15.28;100.00;100741.03;5051384;28;20194;-75
2022/09/11 10:06:38;;;;;;;0.00;0.00;;;;;;;15.32;100.00;100735.66;5052750;28;20199;-76
2022/09/11 10:09:03;;;;;;;0.00;0.00;;;;;;;15.38;100.00;100743.41;5052567;28;20258;-76
2022/09/11 10:11:29;;;;;;;0.00;0.00;;;;;;;15.59;100.00;100737.88;5052568;28;20179;-75
2022/09/11 10:13:56;;;;;;;0.00;0.00;;;;;;;15.68;100.00;100746.09;5058922;28;20626;-75
2022/09/11 10:16:24;;;;;;;0.00;0.00;;;;;;;15.91;100.00;100746.50;5064398;28;20178;-75
2022/09/11 10:18:50;;;;;;;0.97;0.97;;;;;;;16.12;100.00;100740.94;5072297;28;20266;-75
2022/09/11 10:21:34;;;;;;;0.00;0.00;;;;;;;16.16;100.00;100747.38;5072279;28;20190;-74
2022/09/11 10:24:08;;;;;;;0.00;0.00;;;;;;;16.03;100.00;100749.28;5072256;28;20167;-74
2022/09/11 10:26:39;;;;;;;0.47;0.47;;;;;;;16.15;100.00;100748.53;5072438;28;20206;-74
2022/09/11 10:29:06;;;;;;;0.00;0.00;;;;;;;16.25;98.87;100750.84;5072202;28;20262;-74
2022/09/11 10:31:32;;;;;;;0.00;0.00;;;;;;;16.25;98.61;100756.38;5072159;28;20175;-74
2022/09/11 10:33:59;;;;;;;0.00;0.00;;;;;;;16.38;98.64;100755.25;5072030;28;20163;-74
2022/09/11 10:36:27;;;;;;;0.00;0.00;;;;;;;16.43;96.92;100760.53;5072082;28;20174;-73
2022/09/11 10:38:56;;;;;;;1.40;1.40;;;;;;;16.42;95.70;100760.88;5070774;28;20170;-74
2022/09/11 10:41:23;;;;;;;0.20;0.20;;;;;;;16.49;95.59;100763.84;5071855;28;20179;-74
2022/09/11 10:43:59;;;;;;;0.73;0.73;;;;;;;16.48;94.61;100767.75;5071764;28;20202;-74
2022/09/11 10:46:35;;;;;;;0.00;0.00;;;;;;;16.49;94.97;100764.69;5072313;28;20178;-74
2022/09/11 10:49:04;;;;;;;0.00;0.00;;;;;;;16.44;95.00;100766.84;5071844;28;20205;-74
2022/09/11 10:51:32;;;;;;;0.00;0.00;;;;;;;16.43;95.21;100768.78;5071743;28;20174;-74
2022/09/11 10:54:12;;;;;;;0.97;0.97;;;;;;;16.44;95.46;100773.16;5071560;28;20182;-74
2022/09/11 10:56:53;;;;;;;0.30;0.30;;;;;;;16.45;94.84;100772.00;5071491;28;20235;-74
2022/09/11 10:59:27;;;;;;;1.07;1.07;;;;;;;16.48;95.92;100771.31;5071713;28;20235;-74
2022/09/11 11:01:53;;;;;;;0.00;0.00;;;;;;;16.52;94.73;100774.22;5071704;28;20298;-74
2022/09/11 11:04:19;;;;;;;0.00;0.00;;;;;;;16.54;95.27;100767.22;5071538;28;20210;-74
2022/09/11 11:07:10;;;;;;;0.00;0.00;;;;;;;16.60;94.67;100767.78;5071579;28;20170;-74
2022/09/11 11:09:58;;;;;;;0.00;0.00;;;;;;;16.60;93.02;100774.09;5071195;28;20206;-75
2022/09/11 11:12:48;;;;;;;0.53;0.53;;;;;;;16.77;93.54;100783.31;5070995;28;20573;-74
2022/09/11 11:15:29;;;;;;;0.47;0.47;;;;;;;16.66;94.01;100786.53;5069421;28;20178;-74
2022/09/11 11:18:24;;;;;;;1.17;1.17;;;;;;;16.70;93.68;100780.34;5071006;28;20225;-74
2022/09/11 11:21:24;;;;;;;0.00;0.00;;;;;;;16.76;93.71;100779.75;5070918;28;20190;-74
2022/09/11 11:24:25;;;;;;;1.67;1.00;;;;;;;16.81;94.11;100781.50;5027430;28;20302;-75
2022/09/11 11:27:38;;;;;;;0.00;0.00;;;;;;;16.80;92.59;100779.91;5070581;28;20186;-74
2022/09/11 11:30:18;;;;;;;0.87;0.87;;;;;;;16.78;92.46;100768.38;5038441;28;20267;-74
2022/09/11 11:32:54;;;;;;;0.47;0.47;;;;;;;16.86;93.33;100776.56;5070758;28;20200;-74